Time;durP1;ratioP1;P1;durP2;ratioP2;P2;SDS_P1;SDS_P2;PMS_P1;PMS_P2;Temp;Humidity;BMP_temperature;BMP_pressure;BME280_temperature;BME280_humidity;BME280_pressure;Samples;Min_cycle;Max_cycle;Signal;HPM_P1;HPM_P2
2023/07/24 00:00:05;;;;;;;3.10;1.88;;;;;;;19.78;79.95;97808.31;4120583;28;20818;-48
2023/07/24 00:02:07;;;;;;;2.33;2.05;;;;;;;19.81;80.33;97795.75;4127543;28;20219;-48
2023/07/24 00:04:08;;;;;;;2.20;2.00;;;;;;;19.80;80.70;97794.09;4128292;28;20213;-48
2023/07/24 00:06:10;;;;;;;1.70;1.60;;;;;;;19.74;81.01;97795.41;4128529;28;20205;-50
2023/07/24 00:08:12;;;;;;;2.17;1.90;;;;;;;19.80;81.11;97788.56;4127898;28;20217;-49
2023/07/24 00:10:15;;;;;;;9.40;2.20;;;;;;;19.72;81.22;97787.41;4112188;28;20708;-48
2023/07/24 00:12:17;;;;;;;2.55;2.25;;;;;;;19.68;81.44;97792.00;4111594;28;20210;-49
2023/07/24 00:14:18;;;;;;;1.98;1.77;;;;;;;19.70;81.11;97795.25;4126678;28;20281;-48
2023/07/24 00:16:20;;;;;;;1.92;1.73;;;;;;;19.71;80.81;97799.66;4126925;28;20214;-49
2023/07/24 00:18:22;;;;;;;3.05;2.28;;;;;;;19.73;80.50;97794.63;4128484;28;20260;-48
2023/07/24 00:20:24;;;;;;;2.45;1.80;;;;;;;19.74;80.80;97800.97;4128724;28;20273;-49
2023/07/24 00:22:26;;;;;;;2.08;1.52;;;;;;;19.72;80.91;97797.72;4121945;28;20275;-48
2023/07/24 00:24:29;;;;;;;2.10;1.70;;;;;;;19.73;81.17;97804.88;4143577;28;20213;-49
2023/07/24 00:26:31;;;;;;;1.85;1.60;;;;;;;19.77;81.07;97805.88;4123090;28;20221;-48
2023/07/24 00:28:33;;;;;;;1.83;1.70;;;;;;;19.62;81.71;97792.47;4121744;28;20305;-51
2023/07/24 00:30:35;;;;;;;3.05;2.03;;;;;;;19.66;81.80;97793.47;4141771;28;20217;-48
2023/07/24 00:32:36;;;;;;;2.00;1.80;;;;;;;19.75;82.04;97788.72;4127748;28;20240;-52
2023/07/24 00:34:41;;;;;;;1.90;1.80;;;;;;;19.63;82.54;97783.00;4125978;28;20228;-50
2023/07/24 00:36:43;;;;;;;1.92;1.65;;;;;;;19.54;82.62;97779.41;4122093;28;20213;-48
2023/07/24 00:38:44;;;;;;;2.30;2.10;;;;;;;19.66;82.50;97783.16;4129708;28;20222;-49
2023/07/24 00:40:46;;;;;;;2.00;1.80;;;;;;;19.54;83.39;97784.94;4126827;28;20217;-49
2023/07/24 00:42:48;;;;;;;3.67;2.45;;;;;;;19.40;83.64;97787.06;4127762;28;20213;-49
2023/07/24 00:44:50;;;;;;;2.20;2.00;;;;;;;19.34;84.09;97775.31;4125856;28;20206;-48
2023/07/24 00:46:53;;;;;;;2.88;1.80;;;;;;;19.14;84.68;97786.16;4125447;28;20241;-47
2023/07/24 00:48:54;;;;;;;2.33;2.13;;;;;;;19.20;84.57;97774.63;4111275;28;20401;-49
2023/07/24 00:50:56;;;;;;;2.25;2.00;;;;;;;19.27;83.92;97777.75;4125992;28;20249;-49
2023/07/24 00:52:58;;;;;;;2.42;2.22;;;;;;;19.35;83.44;97776.09;4112131;28;20261;-50
2023/07/24 00:55:00;;;;;;;2.13;1.60;;;;;;;19.30;83.56;97770.72;4110921;28;20731;-48
2023/07/24 00:57:03;;;;;;;2.17;1.98;;;;;;;19.27;83.40;97766.66;4122276;28;20616;-48
2023/07/24 00:59:05;;;;;;;2.42;2.00;;;;;;;19.29;83.30;97769.06;4119883;28;20226;-49
2023/07/24 01:01:07;;;;;;;3.25;1.70;;;;;;;19.30;83.19;97768.75;4125799;28;20696;-49
2023/07/24 01:03:09;;;;;;;3.05;1.70;;;;;;;19.32;83.06;97780.34;4111288;28;20214;-50
2023/07/24 01:05:13;;;;;;;2.05;1.83;;;;;;;19.32;82.87;97776.78;4111074;28;20730;-48
2023/07/24 01:07:16;;;;;;;2.35;2.08;;;;;;;19.31;83.16;97786.25;4127152;28;20222;-49
2023/07/24 01:09:19;;;;;;;2.13;1.40;;;;;;;19.35;83.26;97787.22;4127314;28;20241;-48
2023/07/24 01:11:43;;;;;;;3.05;1.85;;;;;;;19.24;83.68;97772.03;4127374;28;20209;-49
2023/07/24 01:13:52;;;;;;;2.17;1.98;;;;;;;19.32;84.22;97754.56;4122132;28;20667;-48
2023/07/24 01:16:01;;;;;;;2.50;1.70;;;;;;;19.22;84.97;97722.41;4126786;28;20720;-48
2023/07/24 01:18:09;;;;;;;2.30;1.90;;;;;;;18.87;86.38;97651.38;4129460;28;20205;-48
2023/07/24 01:20:14;;;;;;;2.13;1.92;;;;;;;18.75;87.00;97628.19;4126437;28;20229;-49
2023/07/24 01:22:25;;;;;;;2.00;1.77;;;;;;;18.74;86.56;97632.09;4128095;28;20214;-49
2023/07/24 01:24:35;;;;;;;2.25;1.98;;;;;;;18.82;86.28;97672.88;4123852;28;20233;-50
2023/07/24 01:26:37;;;;;;;2.38;2.00;;;;;;;18.98;86.30;97690.69;4127800;28;20582;-47
2023/07/24 01:28:39;;;;;;;2.38;1.85;;;;;;;19.01;85.91;97699.19;4111758;28;20230;-53
2023/07/24 01:30:41;;;;;;;1.83;1.70;;;;;;;19.02;85.49;97705.53;4126510;28;20300;-49
2023/07/24 01:32:43;;;;;;;2.22;1.90;;;;;;;19.11;85.29;97715.50;4143877;28;20244;-48
2023/07/24 01:34:46;;;;;;;2.35;2.00;;;;;;;19.18;85.45;97726.13;4142278;28;20292;-49
2023/07/24 01:36:48;;;;;;;4.60;2.28;;;;;;;19.22;85.01;97716.03;4110632;28;20266;-48
2023/07/24 01:38:50;;;;;;;2.58;1.98;;;;;;;18.97;85.52;97708.47;4126152;28;20322;-48
2023/07/24 01:40:53;;;;;;;3.63;2.50;;;;;;;18.97;85.90;97714.81;4141537;28;20201;-47
2023/07/24 01:42:55;;;;;;;4.68;2.10;;;;;;;18.98;85.72;97719.22;4126684;28;20905;-47
2023/07/24 01:44:57;;;;;;;2.72;2.30;;;;;;;18.82;85.79;97725.56;4110445;28;20222;-48
2023/07/24 01:46:58;;;;;;;2.40;2.20;;;;;;;18.72;86.74;97723.09;4141744;28;20757;-47
2023/07/24 01:49:00;;;;;;;3.00;2.42;;;;;;;18.37;88.33;97727.69;4142235;28;20700;-47
2023/07/24 01:51:02;;;;;;;2.45;1.95;;;;;;;18.42;88.66;97735.03;4126135;28;20206;-48
2023/07/24 01:53:04;;;;;;;2.70;2.45;;;;;;;18.24;89.47;97733.31;4125326;28;20202;-47
2023/07/24 01:55:06;;;;;;;2.85;2.38;;;;;;;18.13;89.94;97738.28;4128878;28;20210;-49
2023/07/24 01:57:08;;;;;;;2.45;2.20;;;;;;;18.07;90.77;97741.50;4143223;28;20701;-47
2023/07/24 01:59:10;;;;;;;3.72;2.35;;;;;;;18.10;90.54;97732.53;4126835;28;20655;-47
2023/07/24 02:01:12;;;;;;;2.22;1.67;;;;;;;18.23;89.58;97728.88;4127144;28;20205;-48
2023/07/24 02:03:13;;;;;;;1.90;1.77;;;;;;;18.33;88.87;97725.88;4123619;28;20917;-49
2023/07/24 02:05:15;;;;;;;2.75;1.98;;;;;;;18.49;88.19;97713.22;4122893;28;20226;-49
2023/07/24 02:07:17;;;;;;;2.10;1.90;;;;;;;18.55;88.13;97711.94;4125318;28;20226;-47
2023/07/24 02:09:19;;;;;;;2.47;2.00;;;;;;;18.58;87.48;97716.84;4130113;28;20260;-46
2023/07/24 02:11:21;;;;;;;3.70;2.60;;;;;;;18.63;87.29;97708.38;4126868;28;20213;-47
2023/07/24 02:13:23;;;;;;;2.53;2.20;;;;;;;18.68;87.06;97711.00;4126348;28;20264;-48
2023/07/24 02:15:24;;;;;;;3.92;2.38;;;;;;;18.68;87.03;97697.16;4126679;28;20668;-47
2023/07/24 02:17:26;;;;;;;3.53;1.95;;;;;;;18.66;86.98;97694.69;4124314;28;20234;-48
2023/07/24 02:19:28;;;;;;;2.10;1.92;;;;;;;18.64;86.88;97698.94;4126807;28;20268;-47
2023/07/24 02:21:29;;;;;;;6.18;1.80;;;;;;;18.61;86.89;97688.47;4126924;28;20687;-49
2023/07/24 02:23:31;;;;;;;2.42;1.85;;;;;;;18.64;87.04;97687.84;4125953;28;20206;-47
2023/07/24 02:25:35;;;;;;;2.85;2.20;;;;;;;18.63;87.09;97703.66;4126089;28;20214;-48
2023/07/24 02:27:37;;;;;;;6.28;2.20;;;;;;;18.66;87.01;97704.97;4127098;28;20220;-48
2023/07/24 02:29:39;;;;;;;4.40;2.45;;;;;;;18.61;87.17;97699.56;4126209;28;20237;-48
2023/07/24 02:31:41;;;;;;;3.45;2.20;;;;;;;18.66;87.37;97696.66;4126070;28;20218;-47
2023/07/24 02:33:43;;;;;;;11.00;2.67;;;;;;;18.66;87.32;97697.47;4125906;28;20237;-47
2023/07/24 02:35:44;;;;;;;2.10;1.90;;;;;;;18.70;87.61;97703.19;4141609;28;20205;-47
2023/07/24 02:37:46;;;;;;;2.50;1.70;;;;;;;18.67;87.95;97692.75;4108587;28;20716;-46
2023/07/24 02:39:48;;;;;;;2.55;2.35;;;;;;;18.66;88.40;97704.97;4122903;28;20289;-47
2023/07/24 02:41:50;;;;;;;2.97;1.85;;;;;;;18.69;89.47;97698.78;4126699;28;20210;-49
2023/07/24 02:43:51;;;;;;;2.35;2.15;;;;;;;18.63;90.09;97700.88;4128418;28;20202;-46
2023/07/24 02:45:53;;;;;;;2.70;2.33;;;;;;;18.62;90.27;97695.66;4102698;28;20270;-48
2023/07/24 02:47:55;;;;;;;2.40;2.20;;;;;;;18.71;90.67;97693.75;4142430;28;20647;-46
2023/07/24 02:49:57;;;;;;;2.22;2.03;;;;;;;18.31;92.71;97678.28;4125621;28;20317;-47
2023/07/24 02:51:58;;;;;;;2.20;1.77;;;;;;;18.38;92.78;97668.34;4126420;28;20206;-47
2023/07/24 02:54:00;;;;;;;1.83;1.60;;;;;;;18.40;92.19;97659.72;4126704;28;20822;-47
2023/07/24 02:56:02;;;;;;;3.13;1.83;;;;;;;18.45;92.02;97652.09;4140836;28;20291;-49
2023/07/24 02:58:04;;;;;;;3.17;2.20;;;;;;;18.46;92.55;97658.47;4140899;28;20296;-49
2023/07/24 03:00:06;;;;;;;3.05;2.42;;;;;;;18.47;92.74;97651.78;4141086;28;20225;-47
2023/07/24 03:02:08;;;;;;;2.75;2.33;;;;;;;18.45;93.31;97637.44;4124660;28;20244;-48
2023/07/24 03:04:10;;;;;;;2.75;2.40;;;;;;;18.28;94.02;97623.47;4141316;28;20205;-48
2023/07/24 03:06:12;;;;;;;2.42;2.22;;;;;;;18.25;94.82;97626.91;4125065;28;20264;-47
2023/07/24 03:08:13;;;;;;;4.15;2.17;;;;;;;18.38;94.65;97628.78;4142211;28;20213;-47
2023/07/24 03:10:15;;;;;;;3.40;2.30;;;;;;;18.29;95.01;97608.50;4125762;28;20241;-47
2023/07/24 03:12:17;;;;;;;2.45;2.13;;;;;;;17.92;96.33;97597.94;4141658;28;20205;-46
2023/07/24 03:14:19;;;;;;;3.40;2.65;;;;;;;17.82;97.54;97595.44;4126131;28;20206;-48
2023/07/24 03:16:20;;;;;;;3.17;2.83;;;;;;;17.81;97.39;97596.59;4125814;28;20213;-49
2023/07/24 03:18:23;;;;;;;3.00;2.53;;;;;;;17.87;96.51;97600.84;4110146;28;20215;-50
2023/07/24 03:20:24;;;;;;;2.92;2.63;;;;;;;17.96;96.29;97602.53;4126553;28;20733;-49
2023/07/24 03:22:26;;;;;;;2.30;2.10;;;;;;;18.00;96.13;97606.31;4127346;28;20198;-47
2023/07/24 03:24:28;;;;;;;2.58;2.38;;;;;;;18.06;95.96;97606.97;4124378;28;20214;-47
2023/07/24 03:26:30;;;;;;;2.47;2.28;;;;;;;18.14;95.72;97601.47;4141999;28;20278;-48
2023/07/24 03:28:32;;;;;;;2.40;2.00;;;;;;;18.09;95.39;97592.47;4121029;28;20280;-47
2023/07/24 03:30:34;;;;;;;1.98;1.77;;;;;;;18.10;95.68;97594.91;4120779;28;20311;-48
2023/07/24 03:32:37;;;;;;;3.00;2.58;;;;;;;17.99;96.35;97592.75;4125004;28;20208;-47
2023/07/24 03:34:39;;;;;;;2.42;2.15;;;;;;;18.08;95.73;97586.13;4126582;28;20216;-47
2023/07/24 03:36:42;;;;;;;2.38;2.20;;;;;;;18.07;95.16;97580.91;4142312;28;20546;-46
2023/07/24 03:38:44;;;;;;;2.55;2.17;;;;;;;18.11;94.73;97590.22;4126379;28;20222;-48
2023/07/24 03:40:47;;;;;;;2.28;2.08;;;;;;;18.12;94.38;97575.22;4124754;28;20695;-47
2023/07/24 03:42:49;;;;;;;4.38;2.70;;;;;;;18.15;94.40;97583.69;4122156;28;20289;-49
2023/07/24 03:44:50;;;;;;;3.00;2.55;;;;;;;18.16;94.23;97598.34;4137457;28;20212;-48
2023/07/24 03:46:52;;;;;;;2.40;1.92;;;;;;;18.18;94.46;97596.09;4120654;28;20214;-47
2023/07/24 03:48:54;;;;;;;3.10;2.13;;;;;;;18.18;94.50;97609.94;4116035;28;20230;-48
2023/07/24 03:51:00;;;;;;;2.67;2.00;;;;;;;18.18;95.07;97618.25;4104568;28;20235;-49
2023/07/24 03:53:01;;;;;;;2.95;2.13;;;;;;;18.20;95.55;97610.44;4124767;28;20258;-47
2023/07/24 03:55:04;;;;;;;2.45;1.88;;;;;;;18.18;95.99;97619.06;4123336;28;20270;-48
2023/07/24 03:57:05;;;;;;;3.35;2.25;;;;;;;18.14;96.18;97631.09;4123804;28;20217;-47
2023/07/24 03:59:07;;;;;;;3.50;2.50;;;;;;;18.11;96.35;97634.50;4124228;28;20321;-47
2023/07/24 04:01:09;;;;;;;2.28;2.05;;;;;;;18.15;95.96;97629.94;4139691;28;20209;-47
2023/07/24 04:03:11;;;;;;;2.85;2.55;;;;;;;18.09;95.65;97631.22;4124268;28;20305;-47
2023/07/24 04:05:13;;;;;;;2.75;2.38;;;;;;;18.13;95.35;97615.63;4103048;28;20211;-47
2023/07/24 04:07:15;;;;;;;3.08;2.33;;;;;;;18.06;95.78;97610.53;4122871;28;20252;-49
2023/07/24 04:09:17;;;;;;;2.55;1.90;;;;;;;18.07;95.91;97612.19;4109718;28;20233;-48
2023/07/24 04:11:18;;;;;;;4.70;2.63;;;;;;;18.05;95.80;97610.88;4125737;28;20639;-48
2023/07/24 04:13:20;;;;;;;2.70;2.10;;;;;;;18.05;95.72;97613.63;4124126;28;20214;-46
2023/07/24 04:15:22;;;;;;;2.78;2.38;;;;;;;18.00;96.50;97616.53;4123310;28;20218;-49
2023/07/24 04:17:24;;;;;;;4.55;2.83;;;;;;;17.96;96.55;97621.91;4122453;28;20218;-47
2023/07/24 04:19:26;;;;;;;3.00;2.53;;;;;;;17.94;96.10;97626.13;4126447;28;20257;-48
2023/07/24 04:21:27;;;;;;;2.45;2.20;;;;;;;17.97;95.99;97622.69;4127856;28;20845;-47
2023/07/24 04:23:35;;;;;;;2.40;2.20;;;;;;;18.02;95.89;97630.88;4123245;28;20218;-47
2023/07/24 04:25:38;;;;;;;3.00;2.30;;;;;;;18.03;95.84;97635.28;4142569;28;20198;-50
2023/07/24 04:27:40;;;;;;;2.92;2.72;;;;;;;18.04;95.90;97634.16;4111255;28;20215;-50
2023/07/24 04:29:42;;;;;;;2.75;2.42;;;;;;;18.07;96.13;97625.19;4125286;28;20273;-51
2023/07/24 04:31:44;;;;;;;2.70;2.30;;;;;;;18.08;96.19;97635.13;4126056;28;20268;-49
2023/07/24 04:33:45;;;;;;;4.40;2.53;;;;;;;18.10;96.61;97636.47;4126702;28;20218;-49
2023/07/24 04:35:49;;;;;;;3.53;2.35;;;;;;;18.11;96.82;97646.41;4112560;28;20226;-51
2023/07/24 04:37:51;;;;;;;2.83;1.88;;;;;;;18.07;96.62;97650.13;4137759;28;20209;-50
2023/07/24 04:39:52;;;;;;;2.72;2.47;;;;;;;18.09;96.67;97653.38;4122620;28;20226;-51
2023/07/24 04:41:54;;;;;;;4.20;2.70;;;;;;;18.13;96.80;97652.41;4127137;28;20210;-51
2023/07/24 04:43:56;;;;;;;2.47;2.28;;;;;;;18.12;96.96;97647.22;4125421;28;20699;-50
2023/07/24 04:45:58;;;;;;;3.17;1.88;;;;;;;18.22;97.12;97642.22;4122354;28;20225;-50
2023/07/24 04:47:59;;;;;;;10.50;2.80;;;;;;;18.24;96.81;97625.28;4125347;28;20213;-49
2023/07/24 04:50:01;;;;;;;2.78;2.58;;;;;;;18.14;97.36;97614.47;4123527;28;20276;-51
2023/07/24 04:52:06;;;;;;;2.58;2.38;;;;;;;18.03;97.80;97607.59;4109928;28;20211;-51
2023/07/24 04:54:08;;;;;;;2.67;2.25;;;;;;;18.02;97.43;97617.03;4124604;28;20214;-51
2023/07/24 04:56:10;;;;;;;2.33;2.13;;;;;;;18.06;97.49;97610.53;4141911;28;20224;-50
2023/07/24 04:58:12;;;;;;;2.50;1.88;;;;;;;18.11;97.18;97617.91;4125687;28;20212;-49
2023/07/24 05:00:14;;;;;;;2.72;2.53;;;;;;;18.12;97.17;97612.03;4125350;28;20222;-50
2023/07/24 05:02:16;;;;;;;2.30;2.10;;;;;;;18.13;97.27;97605.34;4122167;28;20249;-50
2023/07/24 05:04:17;;;;;;;3.20;2.90;;;;;;;18.13;97.25;97621.94;4128194;28;20700;-50
2023/07/24 05:06:19;;;;;;;4.95;2.35;;;;;;;18.22;97.17;97635.84;4126540;28;20210;-52
2023/07/24 05:08:21;;;;;;;2.90;2.53;;;;;;;18.06;98.27;97632.69;4118249;28;20206;-56
2023/07/24 05:10:23;;;;;;;4.45;2.08;;;;;;;18.12;97.72;97633.38;4124833;28;20237;-49
2023/07/24 05:12:25;;;;;;;5.85;2.53;;;;;;;18.14;97.61;97629.16;4123412;28;20242;-50
2023/07/24 05:14:27;;;;;;;4.28;2.88;;;;;;;18.18;97.71;97623.78;4116804;28;20214;-50
2023/07/24 05:16:28;;;;;;;4.93;2.30;;;;;;;18.17;97.09;97624.91;4117490;28;20226;-49
2023/07/24 05:18:31;;;;;;;2.95;2.65;;;;;;;18.20;97.04;97621.50;4124142;28;20237;-50
2023/07/24 05:20:33;;;;;;;3.63;3.33;;;;;;;18.22;96.36;97613.69;4125962;28;20219;-49
2023/07/24 05:22:34;;;;;;;4.43;2.58;;;;;;;18.25;96.22;97604.75;4136854;28;20206;-50
2023/07/24 05:24:37;;;;;;;3.30;2.75;;;;;;;18.24;95.67;97606.69;4123857;28;20329;-51
2023/07/24 05:26:39;;;;;;;2.67;2.47;;;;;;;18.32;95.63;97618.97;4138681;28;20271;-50
2023/07/24 05:28:41;;;;;;;2.70;2.50;;;;;;;18.33;95.61;97613.09;4123483;28;20220;-50
2023/07/24 05:30:42;;;;;;;2.95;2.65;;;;;;;18.34;95.36;97630.53;4122621;28;20261;-50
2023/07/24 05:32:44;;;;;;;2.83;2.63;;;;;;;18.39;94.99;97619.31;4126493;28;20361;-50
2023/07/24 05:34:46;;;;;;;3.03;2.72;;;;;;;18.41;95.07;97617.03;4141215;28;20838;-48
2023/07/24 05:36:48;;;;;;;3.05;2.75;;;;;;;18.40;94.77;97613.47;4125924;28;20576;-47
2023/07/24 05:38:52;;;;;;;2.50;2.30;;;;;;;18.44;94.57;97608.09;4125253;28;20226;-46
2023/07/24 05:41:02;;;;;;;3.60;2.17;;;;;;;18.50;94.09;97618.69;4142691;28;20205;-48
2023/07/24 05:43:04;;;;;;;3.00;2.72;;;;;;;18.51;94.10;97622.28;4128067;28;21003;-47
2023/07/24 05:45:06;;;;;;;4.75;2.80;;;;;;;18.56;94.93;97633.19;4108943;28;20226;-47
2023/07/24 05:47:08;;;;;;;2.58;2.30;;;;;;;18.52;95.28;97623.91;4141712;28;20252;-47
2023/07/24 05:49:10;;;;;;;4.25;2.75;;;;;;;18.53;94.89;97625.53;4125025;28;20226;-47
2023/07/24 05:51:15;;;;;;;3.20;2.45;;;;;;;18.48;95.05;97623.75;4125278;28;20234;-47
2023/07/24 05:53:20;;;;;;;3.10;2.80;;;;;;;18.50;94.80;97618.69;4109122;28;20737;-47
2023/07/24 05:55:28;;;;;;;2.72;2.53;;;;;;;18.57;95.07;97615.47;4121930;28;20216;-47
2023/07/24 05:57:30;;;;;;;3.83;3.50;;;;;;;18.65;95.03;97617.41;4125951;28;20205;-48
2023/07/24 05:59:32;;;;;;;3.08;2.78;;;;;;;18.70;94.14;97608.94;4138261;28;20235;-48
2023/07/24 06:01:34;;;;;;;3.30;2.80;;;;;;;18.60;94.81;97610.09;4124495;28;20235;-48
2023/07/24 06:03:36;;;;;;;5.57;2.75;;;;;;;18.44;95.28;97599.78;4123883;28;20964;-48
2023/07/24 06:05:38;;;;;;;3.85;3.17;;;;;;;18.03;98.16;97593.75;4141784;28;20248;-48
2023/07/24 06:07:39;;;;;;;10.93;3.20;;;;;;;17.98;98.90;97602.22;4127283;28;20246;-48
2023/07/24 06:09:41;;;;;;;23.55;4.20;;;;;;;18.06;99.08;97599.44;4124626;28;20291;-48
2023/07/24 06:11:43;;;;;;;4.47;2.47;;;;;;;18.21;98.16;97601.81;4103215;28;20206;-48
2023/07/24 06:13:45;;;;;;;3.50;3.20;;;;;;;17.95;98.22;97603.66;4124376;28;20198;-48
2023/07/24 06:15:48;;;;;;;5.55;3.10;;;;;;;17.92;98.95;97614.56;4121444;28;20644;-49
2023/07/24 06:17:53;;;;;;;4.20;3.88;;;;;;;18.14;98.96;97612.53;4122739;28;20233;-49
2023/07/24 06:19:55;;;;;;;3.95;3.53;;;;;;;18.12;98.44;97619.53;4124735;28;20232;-48
2023/07/24 06:21:57;;;;;;;3.72;3.40;;;;;;;18.26;98.02;97628.53;4109748;28;20704;-48
2023/07/24 06:24:02;;;;;;;3.88;3.47;;;;;;;18.31;97.99;97633.97;4127963;28;20292;-48
2023/07/24 06:26:08;;;;;;;8.43;3.47;;;;;;;18.42;97.90;97626.97;4123565;28;20648;-51
2023/07/24 06:28:11;;;;;;;3.35;2.92;;;;;;;18.52;98.33;97629.47;4125313;28;20205;-49
2023/07/24 06:30:14;;;;;;;2.85;2.53;;;;;;;18.58;97.63;97617.88;4122747;28;20257;-50
2023/07/24 06:32:17;;;;;;;3.42;3.00;;;;;;;18.57;96.87;97621.81;4122669;28;20210;-50
2023/07/24 06:34:19;;;;;;;4.35;3.00;;;;;;;18.55;98.23;97634.34;4137538;28;20212;-50
2023/07/24 06:36:20;;;;;;;4.80;3.50;;;;;;;18.83;97.83;97644.00;4107217;28;20249;-49
2023/07/24 06:38:22;;;;;;;5.28;3.47;;;;;;;19.05;96.76;97649.44;4122804;28;20224;-49
2023/07/24 06:40:24;;;;;;;3.30;3.10;;;;;;;19.40;94.56;97656.63;4117022;28;20231;-49
2023/07/24 06:42:26;;;;;;;4.15;3.33;;;;;;;19.59;93.87;97657.09;4121888;28;20213;-51
2023/07/24 06:44:28;;;;;;;4.38;3.97;;;;;;;19.87;93.59;97652.78;4122826;28;20284;-49
2023/07/24 06:46:29;;;;;;;4.55;4.15;;;;;;;19.85;90.77;97644.00;4105835;28;20282;-52
2023/07/24 06:48:32;;;;;;;4.70;4.30;;;;;;;19.95;90.95;97636.13;4102749;28;20214;-50
2023/07/24 06:50:33;;;;;;;4.70;3.42;;;;;;;20.26;89.93;97646.97;4119262;28;20244;-50
2023/07/24 06:52:35;;;;;;;3.50;3.10;;;;;;;20.40;89.50;97642.00;4122851;28;20220;-48
2023/07/24 06:54:37;;;;;;;3.97;3.65;;;;;;;20.52;88.69;97636.56;4107636;28;20289;-50
2023/07/24 06:56:39;;;;;;;4.35;3.80;;;;;;;20.54;88.89;97637.84;4121526;28;20205;-49
2023/07/24 06:58:41;;;;;;;4.97;2.97;;;;;;;20.59;88.63;97645.19;4140356;28;21820;-49
2023/07/24 07:00:43;;;;;;;4.65;3.55;;;;;;;20.64;88.25;97634.66;4122756;28;20228;-50
2023/07/24 07:02:45;;;;;;;3.88;3.35;;;;;;;20.56;87.72;97634.72;4122834;28;20219;-49
2023/07/24 07:04:46;;;;;;;5.03;3.38;;;;;;;20.60;88.49;97621.78;4120175;28;20343;-50
2023/07/24 07:06:48;;;;;;;5.82;2.97;;;;;;;20.59;87.86;97620.16;4123848;28;20214;-50
2023/07/24 07:08:50;;;;;;;4.40;2.97;;;;;;;20.59;87.98;97620.16;4138172;28;21061;-50
2023/07/24 07:10:59;;;;;;;3.80;3.50;;;;;;;20.50;87.92;97627.75;4124973;28;20616;-49
2023/07/24 07:13:00;;;;;;;6.10;3.95;;;;;;;20.63;87.39;97621.09;4118608;28;20464;-50
2023/07/24 07:15:02;;;;;;;3.85;3.47;;;;;;;20.47;86.66;97618.09;4122853;28;20209;-50
2023/07/24 07:17:04;;;;;;;6.55;3.58;;;;;;;20.43;88.95;97619.09;4136714;28;20204;-50
2023/07/24 07:19:09;;;;;;;4.28;3.88;;;;;;;20.41;88.91;97622.22;4107343;28;20238;-48
2023/07/24 07:21:10;;;;;;;7.93;3.80;;;;;;;20.53;89.43;97635.41;4122848;28;20224;-49
2023/07/24 07:23:12;;;;;;;3.88;3.55;;;;;;;20.48;88.81;97638.38;4122662;28;21078;-48
2023/07/24 07:25:14;;;;;;;4.53;3.38;;;;;;;20.57;88.83;97636.38;4120285;28;20261;-48
2023/07/24 07:27:19;;;;;;;3.97;3.67;;;;;;;20.54;88.39;97645.38;4106449;28;20297;-50
2023/07/24 07:29:20;;;;;;;5.57;3.92;;;;;;;20.51;88.57;97643.28;4124212;28;20276;-49
2023/07/24 07:31:23;;;;;;;4.80;4.40;;;;;;;20.38;89.76;97644.31;4119254;28;20233;-52
2023/07/24 07:33:25;;;;;;;5.00;4.60;;;;;;;20.33;89.55;97645.31;4124673;28;20210;-49
2023/07/24 07:35:26;;;;;;;4.70;4.30;;;;;;;20.20;89.91;97642.75;4121570;28;20210;-52
2023/07/24 07:37:28;;;;;;;4.38;3.97;;;;;;;20.12;90.41;97629.72;4124473;28;20201;-51
2023/07/24 07:39:30;;;;;;;5.55;4.10;;;;;;;20.06;91.14;97625.50;4124340;28;20269;-49
2023/07/24 07:41:32;;;;;;;6.90;4.75;;;;;;;20.20;90.88;97634.41;4126465;28;20659;-49
2023/07/24 07:43:35;;;;;;;8.55;4.07;;;;;;;20.45;91.11;97636.25;4123664;28;20671;-48
2023/07/24 07:45:37;;;;;;;5.25;4.45;;;;;;;20.38;90.46;97634.00;4122801;28;20206;-47
2023/07/24 07:47:39;;;;;;;4.82;4.40;;;;;;;20.41;90.76;97632.50;4121201;28;20323;-49
2023/07/24 07:49:41;;;;;;;4.45;4.05;;;;;;;20.57;91.47;97636.38;4123564;28;20642;-48
2023/07/24 07:51:43;;;;;;;4.07;3.78;;;;;;;20.68;91.87;97615.34;4126825;28;20268;-48
2023/07/24 07:53:45;;;;;;;8.63;4.25;;;;;;;20.78;90.80;97614.97;4109855;28;20210;-49
2023/07/24 07:55:55;;;;;;;4.72;4.22;;;;;;;20.81;90.22;97603.16;4122295;28;20210;-50
2023/07/24 07:57:56;;;;;;;6.93;4.45;;;;;;;20.82;89.40;97594.47;4124804;28;20935;-50
2023/07/24 07:59:58;;;;;;;5.00;4.03;;;;;;;20.78;89.76;97592.72;4124095;28;20232;-47
2023/07/24 08:02:00;;;;;;;5.10;4.20;;;;;;;20.85;90.56;97601.34;4120687;28;20205;-48
2023/07/24 08:04:02;;;;;;;9.32;4.00;;;;;;;20.97;90.09;97615.34;4123113;28;20216;-48
2023/07/24 08:06:04;;;;;;;4.82;4.43;;;;;;;21.12;90.38;97620.31;4124392;28;20284;-50
2023/07/24 08:08:05;;;;;;;4.68;4.28;;;;;;;21.16;87.52;97632.38;4140049;28;20317;-48
2023/07/24 08:10:07;;;;;;;4.65;4.25;;;;;;;21.08;87.49;97642.44;4117508;28;20238;-50
2023/07/24 08:12:09;;;;;;;4.20;3.78;;;;;;;21.12;88.25;97645.34;4139497;28;20228;-49
2023/07/24 08:14:11;;;;;;;5.10;4.60;;;;;;;21.18;87.39;97649.56;4141515;28;20208;-50
2023/07/24 08:16:18;;;;;;;7.25;4.68;;;;;;;20.98;88.22;97647.59;4143234;28;20204;-47
2023/07/24 08:18:20;;;;;;;3.90;3.60;;;;;;;20.85;88.23;97629.16;4119488;28;20232;-48
2023/07/24 08:20:22;;;;;;;4.88;4.05;;;;;;;20.83;88.30;97634.22;4125411;28;20233;-51
2023/07/24 08:22:24;;;;;;;5.10;4.70;;;;;;;20.96;87.64;97638.75;4140940;28;20209;-48
2023/07/24 08:24:26;;;;;;;4.32;4.00;;;;;;;21.23;87.11;97632.66;4125041;28;20296;-49
2023/07/24 08:26:27;;;;;;;4.85;4.15;;;;;;;21.53;85.03;97617.47;4119631;28;20711;-50
2023/07/24 08:28:30;;;;;;;4.25;3.70;;;;;;;21.73;84.25;97613.84;4141973;28;20233;-49
2023/07/24 08:30:33;;;;;;;3.38;3.08;;;;;;;21.85;83.78;97613.91;4124066;28;20686;-49
2023/07/24 08:32:35;;;;;;;10.95;3.35;;;;;;;21.84;81.80;97603.91;4124025;28;20296;-49
2023/07/24 08:34:37;;;;;;;4.63;4.03;;;;;;;21.90;82.80;97588.59;4124538;28;20249;-51
2023/07/24 08:36:38;;;;;;;4.40;3.00;;;;;;;21.72;82.60;97573.25;4121636;28;20205;-48
2023/07/24 08:38:42;;;;;;;7.43;3.65;;;;;;;21.58;82.00;97575.50;4125310;28;20221;-52
2023/07/24 08:40:44;;;;;;;4.50;3.55;;;;;;;21.64;82.83;97558.22;4123722;28;20300;-48
2023/07/24 08:42:51;;;;;;;3.78;3.47;;;;;;;21.54;83.41;97546.69;4121906;28;20215;-48
2023/07/24 08:44:54;;;;;;;3.47;2.55;;;;;;;21.48;84.38;97556.44;4107475;28;20679;-48
2023/07/24 08:46:56;;;;;;;3.75;3.40;;;;;;;21.45;84.08;97557.13;4122701;28;20225;-49
2023/07/24 08:48:58;;;;;;;5.18;2.90;;;;;;;21.33;85.57;97560.69;4122343;28;21244;-49
2023/07/24 08:51:00;;;;;;;5.10;2.92;;;;;;;21.47;85.13;97549.22;4103185;28;20249;-48
2023/07/24 08:53:04;;;;;;;3.42;3.13;;;;;;;21.44;87.13;97556.31;4124596;28;20699;-49
2023/07/24 08:55:07;;;;;;;3.42;2.97;;;;;;;21.52;86.89;97557.38;4107579;28;20853;-49
2023/07/24 08:57:11;;;;;;;5.57;3.03;;;;;;;21.58;87.34;97559.59;4142134;28;20275;-48
2023/07/24 08:59:13;;;;;;;5.78;2.88;;;;;;;21.58;85.08;97567.16;4125206;28;20236;-48
2023/07/24 09:01:15;;;;;;;4.13;3.33;;;;;;;21.45;87.31;97562.69;4110283;28;20298;-49
2023/07/24 09:03:18;;;;;;;3.33;3.03;;;;;;;21.45;86.17;97557.91;4110584;28;20225;-48
2023/07/24 09:05:20;;;;;;;4.55;3.40;;;;;;;21.67;85.22;97548.38;4118891;28;20209;-49
2023/07/24 09:07:25;;;;;;;3.90;3.60;;;;;;;21.66;84.32;97541.16;4122967;28;21281;-48
2023/07/24 09:09:33;;;;;;;3.97;3.05;;;;;;;21.60;84.32;97537.81;4124091;28;20639;-50
2023/07/24 09:11:45;;;;;;;4.80;3.53;;;;;;;21.77;82.61;97531.25;4136458;28;20963;-50
2023/07/24 09:13:49;;;;;;;3.47;2.95;;;;;;;22.01;82.45;97528.47;4124583;28;20276;-50
2023/07/24 09:15:55;;;;;;;3.75;3.08;;;;;;;22.08;80.76;97520.34;4136988;28;20208;-47
2023/07/24 09:17:57;;;;;;;3.47;3.17;;;;;;;22.14;80.93;97502.22;4124121;28;20210;-47
2023/07/24 09:20:01;;;;;;;4.32;3.70;;;;;;;22.41;79.37;97518.22;4125159;28;20284;-49
2023/07/24 09:22:16;;;;;;;3.25;2.78;;;;;;;22.58;78.39;97495.69;4108143;28;20217;-49
2023/07/24 09:24:19;;;;;;;7.45;3.00;;;;;;;23.37;77.09;97495.66;4120413;28;20210;-49
2023/07/24 09:26:21;;;;;;;2.88;2.67;;;;;;;23.33;74.70;97491.94;4126327;28;20237;-49
2023/07/24 09:28:23;;;;;;;4.10;2.65;;;;;;;23.67;74.17;97494.88;4126216;28;20207;-48
2023/07/24 09:30:25;;;;;;;3.47;2.70;;;;;;;23.52;71.76;97511.63;4121388;28;20226;-47
2023/07/24 09:32:27;;;;;;;3.40;2.30;;;;;;;23.16;73.78;97500.66;4126665;28;20591;-49
2023/07/24 09:34:31;;;;;;;5.45;2.40;;;;;;;23.26;73.66;97516.88;4128202;28;20240;-48
2023/07/24 09:36:39;;;;;;;3.38;3.08;;;;;;;23.20;74.86;97524.72;4124908;28;20201;-48